createdAt,value
2018-06-27T00:02:25.007Z,7.97
2018-06-27T00:04:55.803Z,10.37
2018-06-27T00:07:26.319Z,8.07
2018-06-27T00:09:56.815Z,7.20
2018-06-27T00:12:27.175Z,7.80
2018-06-27T00:14:57.501Z,7.53
2018-06-27T00:17:28.105Z,9.43
2018-06-27T00:19:59.566Z,8.30
2018-06-27T00:22:30.095Z,9.37
2018-06-27T00:25:00.614Z,7.90
2018-06-27T00:27:31.163Z,8.83
2018-06-27T00:30:01.709Z,9.77
2018-06-27T00:32:46.186Z,9.07
2018-06-27T00:35:16.818Z,10.20
2018-06-27T00:37:47.285Z,9.37
2018-06-27T00:40:17.929Z,8.13
2018-06-27T00:42:48.692Z,8.73
2018-06-27T00:45:19.281Z,8.37
2018-06-27T00:48:00.220Z,11.07
2018-06-27T00:50:30.717Z,8.17
2018-06-27T00:53:01.067Z,9.27
2018-06-27T00:55:31.792Z,7.90
2018-06-27T00:58:02.363Z,7.33
2018-06-27T01:00:32.958Z,8.77
2018-06-27T01:03:11.430Z,9.60
2018-06-27T01:05:42.029Z,9.60
2018-06-27T01:08:12.076Z,9.83
2018-06-27T01:10:42.636Z,7.73
2018-06-27T01:13:13.436Z,6.87
2018-06-27T01:15:43.876Z,10.20
2018-06-27T01:18:14.491Z,12.13
2018-06-27T01:20:45.219Z,8.07
2018-06-27T01:23:15.771Z,8.10
2018-06-27T01:25:46.556Z,10.83
2018-06-27T01:28:17.031Z,8.53
2018-06-27T01:30:47.547Z,7.43
2018-06-27T01:33:18.071Z,11.77
2018-06-27T01:35:48.583Z,12.70
2018-06-27T01:38:19.156Z,8.50
2018-06-27T01:40:49.774Z,9.40
2018-06-27T01:43:20.349Z,9.77
2018-06-27T01:45:50.780Z,8.27
2018-06-27T01:48:21.500Z,9.30
2018-06-27T01:50:52.375Z,8.97
2018-06-27T01:53:23.184Z,10.70
2018-06-27T01:55:53.815Z,9.13
2018-06-27T01:58:24.439Z,7.63
2018-06-27T02:00:54.938Z,9.73
2018-06-27T02:03:25.548Z,9.87
2018-06-27T02:05:56.051Z,12.23
2018-06-27T02:08:26.151Z,10.47
2018-06-27T02:10:56.606Z,11.20
2018-06-27T02:13:27.085Z,9.80
2018-06-27T02:15:57.580Z,10.30
2018-06-27T02:18:27.968Z,11.40
2018-06-27T02:21:02.063Z,8.87
2018-06-27T02:23:32.513Z,8.73
2018-06-27T02:26:03.143Z,11.00
2018-06-27T02:28:33.799Z,9.10
2018-06-27T02:31:04.195Z,9.93
2018-06-27T02:33:34.597Z,8.10
2018-06-27T02:36:09.257Z,9.20
2018-06-27T02:38:39.803Z,10.50
2018-06-27T02:41:10.371Z,9.87
2018-06-27T02:43:40.850Z,8.57
2018-06-27T02:46:11.349Z,10.00
2018-06-27T02:48:41.652Z,12.87
2018-06-27T02:51:12.371Z,9.87
2018-06-27T02:53:42.808Z,12.20
2018-06-27T02:56:13.261Z,10.83
2018-06-27T02:58:43.739Z,9.07
2018-06-27T03:01:14.275Z,7.90
2018-06-27T03:03:44.680Z,12.77
2018-06-27T03:06:15.360Z,11.83
2018-06-27T03:08:45.894Z,9.03
2018-06-27T03:11:16.303Z,10.60
2018-06-27T03:13:46.732Z,9.00
2018-06-27T03:16:17.268Z,11.20
2018-06-27T03:18:54.885Z,12.07
2018-06-27T03:21:26.262Z,12.57
2018-06-27T03:23:56.848Z,12.07
2018-06-27T03:26:27.420Z,10.27
2018-06-27T03:28:57.813Z,11.43
2018-06-27T03:31:28.573Z,11.13
2018-06-27T03:33:59.115Z,11.63
2018-06-27T03:36:29.495Z,8.87
2018-06-27T03:38:59.505Z,14.70
2018-06-27T03:41:30.018Z,10.83
2018-06-27T03:44:00.511Z,9.30
2018-06-27T03:46:31.085Z,9.30
2018-06-27T03:49:01.663Z,9.63
2018-06-27T03:51:32.240Z,11.37
2018-06-27T03:54:02.636Z,8.20
2018-06-27T03:56:33.052Z,10.23
2018-06-27T03:59:03.511Z,11.80
2018-06-27T04:01:34.011Z,13.23
2018-06-27T04:04:04.646Z,10.27
2018-06-27T04:06:35.028Z,11.00
2018-06-27T04:09:09.265Z,8.63
2018-06-27T04:11:40.419Z,8.53
2018-06-27T04:14:10.879Z,8.70
2018-06-27T04:16:41.577Z,10.57
2018-06-27T04:19:11.956Z,8.63
2018-06-27T04:21:42.576Z,10.57
2018-06-27T04:24:13.172Z,9.97
2018-06-27T04:26:43.624Z,10.07
2018-06-27T04:29:14.255Z,9.27
2018-06-27T04:31:44.650Z,8.40
2018-06-27T04:34:15.191Z,8.53
2018-06-27T04:36:45.611Z,9.93
2018-06-27T04:39:16.048Z,15.17
2018-06-27T04:41:46.623Z,9.40
2018-06-27T04:44:17.006Z,17.37
2018-06-27T04:46:47.636Z,15.23
2018-06-27T04:49:17.992Z,11.93
2018-06-27T04:51:48.574Z,12.87
2018-06-27T04:54:19.238Z,10.10
2018-06-27T04:56:49.815Z,18.07
2018-06-27T04:59:20.500Z,12.87
2018-06-27T05:01:51.064Z,10.17
2018-06-27T05:04:21.599Z,10.10
2018-06-27T05:06:55.300Z,18.83
2018-06-27T05:09:26.045Z,8.47
2018-06-27T05:11:56.475Z,10.37
2018-06-27T05:14:26.998Z,8.87
2018-06-27T05:16:57.371Z,10.27
2018-06-27T05:19:28.104Z,13.13
2018-06-27T05:21:58.659Z,10.53
2018-06-27T05:24:29.406Z,8.83
2018-06-27T05:26:59.935Z,10.40
2018-06-27T05:29:43.353Z,9.17
2018-06-27T05:32:13.810Z,9.77
2018-06-27T05:34:44.150Z,8.53
2018-06-27T05:37:14.615Z,9.17
2018-06-27T05:39:44.627Z,8.33
2018-06-27T05:42:15.152Z,7.27
2018-06-27T05:44:45.734Z,7.77
2018-06-27T05:47:15.882Z,6.73
2018-06-27T05:49:57.230Z,7.67
2018-06-27T05:52:27.924Z,7.70
2018-06-27T05:55:03.241Z,6.40
2018-06-27T05:57:33.764Z,8.27
2018-06-27T06:00:04.745Z,9.03
2018-06-27T06:02:35.114Z,7.60
2018-06-27T06:05:05.935Z,11.00
2018-06-27T06:07:36.597Z,7.93
2018-06-27T06:10:07.169Z,8.10
2018-06-27T06:12:37.743Z,6.47
2018-06-27T06:15:08.407Z,18.73
2018-06-27T06:17:39.307Z,8.70
2018-06-27T06:20:09.804Z,8.27
2018-06-27T06:22:40.175Z,8.08
2018-06-27T06:25:10.575Z,8.63
2018-06-27T06:27:40.640Z,10.13
2018-06-27T06:30:10.807Z,9.60
2018-06-27T06:32:44.796Z,6.95
2018-06-27T06:35:14.690Z,8.25
2018-06-27T06:37:44.862Z,6.47
2018-06-27T06:40:15.571Z,10.35
2018-06-27T06:42:45.740Z,9.25
2018-06-27T06:45:15.693Z,6.35
2018-06-27T06:47:53.315Z,7.87
2018-06-27T06:50:23.861Z,7.03
2018-06-27T06:52:54.327Z,7.70
2018-06-27T06:55:24.917Z,6.33
2018-06-27T06:58:03.012Z,6.62
2018-06-27T07:00:41.463Z,10.30
2018-06-27T07:03:11.535Z,6.40
2018-06-27T07:05:41.675Z,8.08
2018-06-27T07:08:11.943Z,6.70
2018-06-27T07:10:42.432Z,6.65
2018-06-27T07:13:12.755Z,6.58
2018-06-27T07:15:43.395Z,7.72
2018-06-27T07:18:13.890Z,7.70
2018-06-27T07:20:52.188Z,5.90
2018-06-27T07:23:22.668Z,9.10
2018-06-27T07:25:52.770Z,5.62
2018-06-27T07:28:23.266Z,6.15
2018-06-27T07:30:53.555Z,8.25
2018-06-27T07:33:23.905Z,9.43
2018-06-27T07:36:14.636Z,7.05
2018-06-27T07:38:45.025Z,5.53
2018-06-27T07:41:15.476Z,6.78
2018-06-27T07:43:45.848Z,5.22
2018-06-27T07:46:16.341Z,5.03
2018-06-27T07:48:46.729Z,5.30
2018-06-27T07:51:17.201Z,6.47
2018-06-27T07:53:47.213Z,5.75
2018-06-27T07:56:17.573Z,6.75
2018-06-27T07:58:48.028Z,9.80
2018-06-27T08:01:18.439Z,6.53
2018-06-27T08:03:49.222Z,5.05
2018-06-27T08:06:19.656Z,6.35
2018-06-27T08:08:50.431Z,4.95
2018-06-27T08:11:20.528Z,4.35
2018-06-27T08:13:50.741Z,4.80
2018-06-27T08:16:21.328Z,5.33
2018-06-27T08:18:52.012Z,5.50
2018-06-27T08:21:22.224Z,6.55
2018-06-27T08:23:52.552Z,4.55
2018-06-27T08:26:22.900Z,4.87
2018-06-27T08:28:53.389Z,4.33
2018-06-27T08:31:23.532Z,5.53
2018-06-27T08:33:54.040Z,6.45
2018-06-27T08:36:24.204Z,5.58
2018-06-27T08:38:54.536Z,4.95
2018-06-27T08:41:25.110Z,4.83
2018-06-27T08:43:55.616Z,5.20
2018-06-27T08:46:26.159Z,3.92
2018-06-27T08:48:56.312Z,4.40
2018-06-27T08:51:26.865Z,4.62
2018-06-27T08:53:57.235Z,4.22
2018-06-27T08:56:27.209Z,5.47
2018-06-27T08:58:57.675Z,8.25
2018-06-27T09:01:28.147Z,7.08
2018-06-27T09:03:58.252Z,5.97
2018-06-27T09:06:28.607Z,5.28
2018-06-27T09:08:58.969Z,6.37
2018-06-27T09:11:29.055Z,4.35
2018-06-27T09:13:59.256Z,3.98
2018-06-27T09:16:29.407Z,3.52
2018-06-27T09:19:00.035Z,5.00
2018-06-27T09:21:30.430Z,5.72
2018-06-27T09:24:00.757Z,4.50
2018-06-27T09:26:31.147Z,6.08
2018-06-27T09:29:01.474Z,5.05
2018-06-27T09:31:31.786Z,3.30
2018-06-27T09:34:01.948Z,6.00
2018-06-27T09:36:32.264Z,4.62
2018-06-27T09:39:02.836Z,4.20
2018-06-27T09:41:33.344Z,3.60
2018-06-27T09:44:03.910Z,3.50
2018-06-27T09:46:35.052Z,6.85
2018-06-27T09:49:05.522Z,4.97
2018-06-27T09:51:35.895Z,4.10
2018-06-27T09:54:06.560Z,2.77
2018-06-27T09:56:37.070Z,4.42
2018-06-27T09:59:07.155Z,11.12
2018-06-27T10:01:37.588Z,3.15
2018-06-27T10:04:08.070Z,4.95
2018-06-27T10:06:38.629Z,2.70
2018-06-27T10:09:10.611Z,3.85
2018-06-27T10:11:41.107Z,5.60
2018-06-27T10:14:11.583Z,3.35
2018-06-27T10:16:41.989Z,5.72
2018-06-27T10:19:12.404Z,4.17
2018-06-27T10:21:42.439Z,5.70
2018-06-27T10:24:12.529Z,3.20
2018-06-27T10:26:43.092Z,3.17
2018-06-27T10:29:13.432Z,3.87
2018-06-27T10:31:43.776Z,5.08
2018-06-27T10:34:13.874Z,4.47
2018-06-27T10:36:44.270Z,3.45
2018-06-27T10:39:14.806Z,4.22
2018-06-27T10:41:45.281Z,3.85
2018-06-27T10:44:15.816Z,8.63
2018-06-27T10:46:45.816Z,5.20
2018-06-27T10:49:16.298Z,5.67
2018-06-27T10:51:46.455Z,4.28
2018-06-27T10:54:16.680Z,4.92
2018-06-27T10:56:47.176Z,6.50
2018-06-27T10:59:17.769Z,5.80
2018-06-27T11:01:48.281Z,6.37
2018-06-27T11:04:18.859Z,4.87
2018-06-27T11:06:49.278Z,2.65
2018-06-27T11:09:19.736Z,4.55
2018-06-27T11:11:49.730Z,4.28
2018-06-27T11:14:20.138Z,3.20
2018-06-27T11:16:50.457Z,3.77
2018-06-27T11:19:20.822Z,2.52
2018-06-27T11:21:51.435Z,4.58
2018-06-27T11:24:21.795Z,3.10
2018-06-27T11:26:52.458Z,4.28
2018-06-27T11:29:22.834Z,3.92
2018-06-27T11:31:52.694Z,3.27
2018-06-27T11:34:22.864Z,3.67
2018-06-27T11:36:53.589Z,4.58
2018-06-27T11:39:23.923Z,4.17
2018-06-27T11:41:54.369Z,3.65
2018-06-27T11:44:24.799Z,4.35
2018-06-27T11:46:55.336Z,4.20
2018-06-27T11:49:26.113Z,2.95
2018-06-27T11:51:56.603Z,5.78
2018-06-27T11:54:26.909Z,4.30
2018-06-27T11:56:57.404Z,4.55
2018-06-27T11:59:27.572Z,3.87
2018-06-27T12:01:57.867Z,4.33
2018-06-27T12:04:28.563Z,3.22
2018-06-27T12:06:59.646Z,5.20
2018-06-27T12:09:29.557Z,5.12
2018-06-27T12:11:59.903Z,3.75
2018-06-27T12:14:30.316Z,4.40
2018-06-27T12:17:00.794Z,2.83
2018-06-27T12:19:31.515Z,4.80
2018-06-27T12:22:02.068Z,6.00
2018-06-27T12:24:32.673Z,5.72
2018-06-27T12:27:03.026Z,2.27
2018-06-27T12:29:33.497Z,3.50
2018-06-27T12:32:03.914Z,9.30
2018-06-27T12:34:34.330Z,3.27
2018-06-27T12:37:04.827Z,2.42
2018-06-27T12:39:35.248Z,5.53
2018-06-27T12:42:05.679Z,2.40
2018-06-27T12:44:35.647Z,3.25
2018-06-27T12:47:05.997Z,4.35
2018-06-27T12:49:36.498Z,4.25
2018-06-27T12:52:07.076Z,3.33
2018-06-27T12:55:04.816Z,4.08
2018-06-27T12:57:35.304Z,4.05
2018-06-27T13:00:07.768Z,2.37
2018-06-27T13:02:37.820Z,5.62
2018-06-27T13:05:09.889Z,2.42
2018-06-27T13:07:39.963Z,2.98
2018-06-27T13:10:10.610Z,3.37
2018-06-27T13:12:40.959Z,3.60
2018-06-27T13:15:11.408Z,3.30
2018-06-27T13:17:41.420Z,3.08
2018-06-27T13:20:11.659Z,3.70
2018-06-27T13:22:41.515Z,4.10
2018-06-27T13:25:11.875Z,2.72
2018-06-27T13:27:42.531Z,4.20
2018-06-27T13:30:13.187Z,4.33
2018-06-27T13:32:43.869Z,4.00
2018-06-27T13:35:14.243Z,3.37
2018-06-27T13:37:44.359Z,4.12
2018-06-27T13:40:14.420Z,3.47
2018-06-27T13:42:44.834Z,3.23
2018-06-27T13:45:14.920Z,5.37
2018-06-27T13:47:45.367Z,3.33
2018-06-27T13:50:15.700Z,4.30
2018-06-27T13:52:46.288Z,4.73
2018-06-27T13:55:22.694Z,5.17
2018-06-27T13:57:53.154Z,6.07
2018-06-27T14:00:23.730Z,5.37
2018-06-27T14:02:53.935Z,4.83
2018-06-27T14:05:24.121Z,4.40
2018-06-27T14:07:54.216Z,4.50
2018-06-27T14:10:24.738Z,5.27
2018-06-27T14:12:55.488Z,7.27
2018-06-27T14:15:25.990Z,4.70
2018-06-27T14:17:56.563Z,5.73
2018-06-27T14:20:26.917Z,8.13
2018-06-27T14:22:57.551Z,4.90
2018-06-27T14:25:28.115Z,5.27
2018-06-27T14:27:58.506Z,4.00
2018-06-27T14:30:28.934Z,5.20
2018-06-27T14:32:59.620Z,6.60
2018-06-27T14:35:30.081Z,6.30
2018-06-27T14:38:00.789Z,5.27
2018-06-27T14:40:31.515Z,4.47
2018-06-27T14:43:01.961Z,4.73
2018-06-27T14:45:32.045Z,4.67
2018-06-27T14:48:02.680Z,5.40
2018-06-27T14:50:33.148Z,5.97
2018-06-27T14:53:03.784Z,6.23
2018-06-27T14:55:34.208Z,4.27
2018-06-27T14:58:04.607Z,4.37
2018-06-27T15:00:34.951Z,4.20
2018-06-27T15:03:05.365Z,3.40
2018-06-27T15:05:35.991Z,4.83
2018-06-27T15:08:06.541Z,7.13
2018-06-27T15:10:36.866Z,5.43
2018-06-27T15:13:07.332Z,4.30
2018-06-27T15:15:37.969Z,4.67
2018-06-27T15:18:08.429Z,6.10
2018-06-27T15:20:39.084Z,5.83
2018-06-27T15:23:09.581Z,5.20
2018-06-27T15:25:39.990Z,5.70
2018-06-27T15:28:10.395Z,5.00
2018-06-27T15:30:40.886Z,6.20
2018-06-27T15:33:11.382Z,4.90
2018-06-27T15:35:41.783Z,6.77
2018-06-27T15:38:11.992Z,4.93
2018-06-27T15:40:42.490Z,7.47
2018-06-27T15:43:14.760Z,7.50
2018-06-27T15:45:44.987Z,5.60
2018-06-27T15:48:15.811Z,6.37
2018-06-27T15:50:46.128Z,7.27
2018-06-27T15:53:16.217Z,5.80
2018-06-27T15:55:46.804Z,4.30
2018-06-27T15:58:17.567Z,4.57
2018-06-27T16:00:47.964Z,5.40
2018-06-27T16:03:18.396Z,6.07
2018-06-27T16:06:05.851Z,5.23
2018-06-27T16:08:36.377Z,5.57
2018-06-27T16:11:06.996Z,5.63
2018-06-27T16:13:37.846Z,4.70
2018-06-27T16:16:09.637Z,6.43
2018-06-27T16:18:40.188Z,4.17
2018-06-27T16:21:10.759Z,4.60
2018-06-27T16:23:41.269Z,4.37
2018-06-27T16:26:11.373Z,4.17
2018-06-27T16:28:41.592Z,5.20
2018-06-27T16:31:17.624Z,6.92
2018-06-27T16:33:48.036Z,4.05
2018-06-27T16:36:18.190Z,4.25
2018-06-27T16:38:48.791Z,6.17
2018-06-27T16:41:19.228Z,3.10
2018-06-27T16:43:49.693Z,4.37
2018-06-27T16:46:37.690Z,2.67
2018-06-27T16:49:08.663Z,4.70
2018-06-27T16:51:41.595Z,6.47
2018-06-27T16:54:12.069Z,3.75
2018-06-27T16:56:42.460Z,3.85
2018-06-27T16:59:12.908Z,5.37
2018-06-27T17:01:43.561Z,5.60
2018-06-27T17:04:14.084Z,2.30
2018-06-27T17:06:44.623Z,3.33
2018-06-27T17:09:15.229Z,4.93
2018-06-27T17:11:45.775Z,2.85
2018-06-27T17:14:16.230Z,3.05
2018-06-27T17:16:46.075Z,1.57
2018-06-27T17:19:16.848Z,5.67
2018-06-27T17:21:47.273Z,2.77
2018-06-27T17:27:24.584Z,2.92
2018-06-27T17:29:55.098Z,2.53
2018-06-27T17:32:32.650Z,2.40
2018-06-27T17:35:03.727Z,3.93
2018-06-27T17:37:35.397Z,2.87
2018-06-27T17:40:06.766Z,2.40
2018-06-27T17:42:37.171Z,2.10
2018-06-27T17:45:07.970Z,3.37
2018-06-27T17:47:38.522Z,2.80
2018-06-27T17:50:09.023Z,2.30
2018-06-27T17:52:40.541Z,3.17
2018-06-27T17:55:16.723Z,2.50
2018-06-27T17:57:46.612Z,3.50
2018-06-27T18:00:17.373Z,2.10
2018-06-27T18:02:47.710Z,1.97
2018-06-27T18:05:36.480Z,3.73
2018-06-27T18:08:06.877Z,2.60
2018-06-27T18:10:37.391Z,2.67
2018-06-27T18:13:07.879Z,2.93
2018-06-27T18:15:38.391Z,2.47
2018-06-27T18:21:08.839Z,2.73
2018-06-27T18:23:39.359Z,3.13
2018-06-27T18:26:09.879Z,2.77
2018-06-27T18:28:40.271Z,2.30
2018-06-27T18:31:10.795Z,2.57
2018-06-27T18:33:41.204Z,3.70
2018-06-27T18:36:11.893Z,4.40
2018-06-27T18:38:42.336Z,3.10
2018-06-27T18:41:12.447Z,3.53
2018-06-27T18:43:53.459Z,4.57
2018-06-27T18:46:24.056Z,3.63
2018-06-27T18:49:02.350Z,2.57
2018-06-27T18:51:32.852Z,5.37
2018-06-27T18:54:03.367Z,3.83
2018-06-27T18:56:34.575Z,3.63
2018-06-27T18:59:05.029Z,2.00
2018-06-27T19:01:36.713Z,5.07
2018-06-27T19:04:07.315Z,2.83
2018-06-27T19:06:43.336Z,3.97
2018-06-27T19:09:14.083Z,4.87
2018-06-27T19:11:44.617Z,2.87
2018-06-27T19:14:15.140Z,3.47
2018-06-27T19:17:03.132Z,4.83
2018-06-27T19:19:33.534Z,3.17
2018-06-27T19:22:09.636Z,5.50
2018-06-27T19:24:40.461Z,4.20
2018-06-27T19:27:11.092Z,3.70
2018-06-27T19:29:41.703Z,3.40
2018-06-27T19:32:12.235Z,2.87
2018-06-27T19:34:42.938Z,6.60
2018-06-27T19:37:14.512Z,3.63
2018-06-27T19:39:45.280Z,3.03
2018-06-27T19:42:15.834Z,4.93
2018-06-27T19:44:45.729Z,4.13
2018-06-27T19:47:16.439Z,4.63
2018-06-27T19:49:47.477Z,4.00
2018-06-27T19:52:18.177Z,3.30
2018-06-27T19:54:53.095Z,4.77
2018-06-27T19:57:24.812Z,3.80
2018-06-27T19:59:55.240Z,6.17
2018-06-27T20:02:25.709Z,4.10
2018-06-27T20:04:56.145Z,3.50
2018-06-27T20:07:26.716Z,3.30
2018-06-27T20:09:56.664Z,4.43
2018-06-27T20:12:30.515Z,3.50
2018-06-27T20:15:01.066Z,4.40
2018-06-27T20:17:31.544Z,3.27
2018-06-27T20:20:01.841Z,5.03
2018-06-27T20:22:32.408Z,6.23
2018-06-27T20:25:04.841Z,3.53
2018-06-27T20:27:35.405Z,4.80
2018-06-27T20:30:13.236Z,4.30
2018-06-27T20:32:43.856Z,3.53
2018-06-27T20:35:14.301Z,3.73
2018-06-27T20:37:44.941Z,2.67
2018-06-27T20:40:15.487Z,2.73
2018-06-27T20:42:46.483Z,3.90
2018-06-27T20:45:27.848Z,5.57
2018-06-27T20:47:58.307Z,3.60
2018-06-27T20:50:39.495Z,3.43
2018-06-27T20:53:10.140Z,5.97
2018-06-27T20:55:40.653Z,3.73
2018-06-27T20:58:11.345Z,5.23
2018-06-27T21:00:41.544Z,3.53
2018-06-27T21:03:12.226Z,3.43
2018-06-27T21:05:42.860Z,2.83
2018-06-27T21:08:13.195Z,3.87
2018-06-27T21:10:45.767Z,3.00
2018-06-27T21:13:16.503Z,3.17
2018-06-27T21:15:47.076Z,3.23
2018-06-27T21:18:30.905Z,3.50
2018-06-27T21:21:13.224Z,3.77
2018-06-27T21:23:47.651Z,4.33
2018-06-27T21:26:22.546Z,4.63
2018-06-27T21:28:54.084Z,4.70
2018-06-27T21:31:25.476Z,5.10
2018-06-27T21:34:16.151Z,5.10
2018-06-27T21:36:48.643Z,4.83
2018-06-27T21:39:25.621Z,4.27
2018-06-27T21:42:00.288Z,3.50
2018-06-27T21:44:30.736Z,3.20
2018-06-27T21:47:01.327Z,3.50
2018-06-27T21:49:31.961Z,4.70
2018-06-27T21:52:02.359Z,3.73
2018-06-27T21:54:32.467Z,3.23
2018-06-27T21:57:02.835Z,3.67
2018-06-27T21:59:33.119Z,3.57
2018-06-27T22:02:03.720Z,3.40
2018-06-27T22:04:34.259Z,4.53
2018-06-27T22:07:05.207Z,3.30
2018-06-27T22:09:35.216Z,3.93
2018-06-27T22:12:05.862Z,3.80
2018-06-27T22:14:36.507Z,5.23
2018-06-27T22:17:07.009Z,5.83
2018-06-27T22:19:37.504Z,3.50
2018-06-27T22:22:07.902Z,4.20
2018-06-27T22:24:38.345Z,5.33
2018-06-27T22:27:08.915Z,3.23
2018-06-27T22:29:39.596Z,4.33
2018-06-27T22:32:11.408Z,5.23
2018-06-27T22:34:44.099Z,3.73
2018-06-27T22:37:14.560Z,6.83
2018-06-27T22:39:45.080Z,3.60
2018-06-27T22:42:15.424Z,4.97
2018-06-27T22:44:45.600Z,3.17
2018-06-27T22:47:32.295Z,3.40
2018-06-27T22:50:02.875Z,2.53
2018-06-27T22:52:33.312Z,4.63
2018-06-27T22:55:04.823Z,3.70
2018-06-27T22:57:50.971Z,3.43
2018-06-27T23:00:25.646Z,5.07
2018-06-27T23:03:07.360Z,2.90
2018-06-27T23:05:37.975Z,3.93
2018-06-27T23:11:08.668Z,3.80
2018-06-27T23:13:39.286Z,3.10
2018-06-27T23:16:09.634Z,3.23
2018-06-27T23:18:40.139Z,4.37
2018-06-27T23:21:10.524Z,3.93
2018-06-27T23:23:41.181Z,4.43
2018-06-27T23:26:12.243Z,3.90
2018-06-27T23:28:42.839Z,2.93
2018-06-27T23:31:13.360Z,4.50
2018-06-27T23:33:44.124Z,3.53
2018-06-27T23:36:14.772Z,2.40
2018-06-27T23:38:45.281Z,3.07
2018-06-27T23:41:15.626Z,3.50
2018-06-27T23:44:10.745Z,3.93
2018-06-27T23:46:41.472Z,3.93
2018-06-27T23:49:12.325Z,3.77
2018-06-27T23:51:42.873Z,3.53
2018-06-27T23:54:13.622Z,4.23
2018-06-27T23:56:44.137Z,4.43
2018-06-27T23:59:14.692Z,3.23
